sensor_id;sensor_type;location;lat;lon;timestamp;P1;durP1;ratioP1;P2;durP2;ratioP2
9276;SDS011;4676;42.678;23.244;2023-05-16T00:00:37;25.90;;;16.77;;
9276;SDS011;4676;42.678;23.244;2023-05-16T00:03:04;31.23;;;21.17;;
9276;SDS011;4676;42.678;23.244;2023-05-16T00:05:32;31.10;;;21.93;;
9276;SDS011;4676;42.678;23.244;2023-05-16T00:08:00;29.77;;;22.33;;
9276;SDS011;4676;42.678;23.244;2023-05-16T00:10:26;31.13;;;22.00;;
9276;SDS011;4676;42.678;23.244;2023-05-16T00:12:53;30.77;;;21.60;;
9276;SDS011;4676;42.678;23.244;2023-05-16T00:15:20;27.57;;;19.87;;
9276;SDS011;4676;42.678;23.244;2023-05-16T00:17:47;27.13;;;18.43;;
9276;SDS011;4676;42.678;23.244;2023-05-16T00:20:14;24.07;;;17.40;;
9276;SDS011;4676;42.678;23.244;2023-05-16T00:22:42;23.00;;;16.67;;
9276;SDS011;4676;42.678;23.244;2023-05-16T00:25:10;22.90;;;17.20;;
9276;SDS011;4676;42.678;23.244;2023-05-16T00:27:37;21.80;;;15.90;;
9276;SDS011;4676;42.678;23.244;2023-05-16T00:30:04;21.13;;;17.03;;
9276;SDS011;4676;42.678;23.244;2023-05-16T00:32:31;20.47;;;15.33;;
9276;SDS011;4676;42.678;23.244;2023-05-16T00:34:58;20.60;;;15.27;;
9276;SDS011;4676;42.678;23.244;2023-05-16T00:37:25;18.40;;;16.10;;
9276;SDS011;4676;42.678;23.244;2023-05-16T00:39:53;20.50;;;15.47;;
9276;SDS011;4676;42.678;23.244;2023-05-16T00:42:20;24.63;;;16.23;;
9276;SDS011;4676;42.678;23.244;2023-05-16T00:44:47;18.77;;;15.03;;
9276;SDS011;4676;42.678;23.244;2023-05-16T00:47:14;21.13;;;15.70;;
9276;SDS011;4676;42.678;23.244;2023-05-16T00:49:40;20.07;;;15.10;;
9276;SDS011;4676;42.678;23.244;2023-05-16T00:52:07;22.73;;;15.03;;
9276;SDS011;4676;42.678;23.244;2023-05-16T00:54:34;20.07;;;15.00;;
9276;SDS011;4676;42.678;23.244;2023-05-16T00:57:05;25.00;;;15.20;;
9276;SDS011;4676;42.678;23.244;2023-05-16T00:59:33;18.07;;;15.00;;
9276;SDS011;4676;42.678;23.244;2023-05-16T01:02:00;18.77;;;15.07;;
9276;SDS011;4676;42.678;23.244;2023-05-16T01:04:27;25.37;;;14.67;;
9276;SDS011;4676;42.678;23.244;2023-05-16T01:06:54;24.33;;;15.23;;
9276;SDS011;4676;42.678;23.244;2023-05-16T01:09:21;16.33;;;14.37;;
9276;SDS011;4676;42.678;23.244;2023-05-16T01:11:49;21.50;;;15.70;;
9276;SDS011;4676;42.678;23.244;2023-05-16T01:14:24;19.23;;;14.87;;
9276;SDS011;4676;42.678;23.244;2023-05-16T01:17:04;21.87;;;15.10;;
9276;SDS011;4676;42.678;23.244;2023-05-16T01:19:40;23.80;;;15.53;;
9276;SDS011;4676;42.678;23.244;2023-05-16T01:22:26;17.27;;;14.60;;
9276;SDS011;4676;42.678;23.244;2023-05-16T01:25:01;17.60;;;14.37;;
9276;SDS011;4676;42.678;23.244;2023-05-16T01:27:33;19.13;;;14.50;;
9276;SDS011;4676;42.678;23.244;2023-05-16T01:30:10;22.60;;;14.30;;
9276;SDS011;4676;42.678;23.244;2023-05-16T01:32:40;22.47;;;15.87;;
9276;SDS011;4676;42.678;23.244;2023-05-16T01:35:09;21.70;;;16.13;;
9276;SDS011;4676;42.678;23.244;2023-05-16T01:37:38;23.60;;;15.87;;
9276;SDS011;4676;42.678;23.244;2023-05-16T01:40:11;21.20;;;16.70;;
9276;SDS011;4676;42.678;23.244;2023-05-16T01:42:46;22.50;;;15.57;;
9276;SDS011;4676;42.678;23.244;2023-05-16T01:45:17;22.87;;;15.63;;
9276;SDS011;4676;42.678;23.244;2023-05-16T01:47:50;21.43;;;17.07;;
9276;SDS011;4676;42.678;23.244;2023-05-16T01:50:22;23.00;;;15.93;;
9276;SDS011;4676;42.678;23.244;2023-05-16T01:52:52;24.40;;;17.10;;
9276;SDS011;4676;42.678;23.244;2023-05-16T01:55:26;23.63;;;17.13;;
9276;SDS011;4676;42.678;23.244;2023-05-16T01:57:59;23.93;;;16.87;;
9276;SDS011;4676;42.678;23.244;2023-05-16T02:00:28;21.67;;;17.50;;
9276;SDS011;4676;42.678;23.244;2023-05-16T02:02:55;22.67;;;17.20;;
9276;SDS011;4676;42.678;23.244;2023-05-16T02:05:22;21.63;;;17.80;;
9276;SDS011;4676;42.678;23.244;2023-05-16T02:07:49;25.43;;;17.30;;
9276;SDS011;4676;42.678;23.244;2023-05-16T02:10:16;24.47;;;16.57;;
9276;SDS011;4676;42.678;23.244;2023-05-16T02:12:43;21.20;;;15.47;;
9276;SDS011;4676;42.678;23.244;2023-05-16T02:15:11;25.37;;;18.50;;
9276;SDS011;4676;42.678;23.244;2023-05-16T02:17:38;22.37;;;18.83;;
9276;SDS011;4676;42.678;23.244;2023-05-16T02:20:06;23.70;;;17.57;;
9276;SDS011;4676;42.678;23.244;2023-05-16T02:22:34;21.87;;;16.77;;
9276;SDS011;4676;42.678;23.244;2023-05-16T02:25:02;20.03;;;16.47;;
9276;SDS011;4676;42.678;23.244;2023-05-16T02:27:29;29.07;;;17.47;;
9276;SDS011;4676;42.678;23.244;2023-05-16T02:29:55;25.40;;;17.40;;
9276;SDS011;4676;42.678;23.244;2023-05-16T02:32:23;27.87;;;17.73;;
9276;SDS011;4676;42.678;23.244;2023-05-16T02:34:50;24.03;;;17.23;;
9276;SDS011;4676;42.678;23.244;2023-05-16T02:37:17;24.90;;;17.80;;
9276;SDS011;4676;42.678;23.244;2023-05-16T02:39:44;22.17;;;17.90;;
9276;SDS011;4676;42.678;23.244;2023-05-16T02:42:10;20.53;;;16.67;;
9276;SDS011;4676;42.678;23.244;2023-05-16T02:44:37;18.70;;;16.47;;
9276;SDS011;4676;42.678;23.244;2023-05-16T02:47:04;20.97;;;17.37;;
9276;SDS011;4676;42.678;23.244;2023-05-16T02:49:32;20.53;;;17.13;;
9276;SDS011;4676;42.678;23.244;2023-05-16T02:51:58;21.10;;;16.80;;
9276;SDS011;4676;42.678;23.244;2023-05-16T02:54:25;21.97;;;17.23;;
9276;SDS011;4676;42.678;23.244;2023-05-16T02:56:52;30.60;;;18.60;;
9276;SDS011;4676;42.678;23.244;2023-05-16T02:59:18;25.13;;;18.17;;
9276;SDS011;4676;42.678;23.244;2023-05-16T03:01:45;22.43;;;19.13;;
9276;SDS011;4676;42.678;23.244;2023-05-16T03:04:12;25.90;;;18.43;;
9276;SDS011;4676;42.678;23.244;2023-05-16T03:06:40;26.10;;;18.50;;
9276;SDS011;4676;42.678;23.244;2023-05-16T03:09:07;22.53;;;18.13;;
9276;SDS011;4676;42.678;23.244;2023-05-16T03:11:33;21.17;;;17.67;;
9276;SDS011;4676;42.678;23.244;2023-05-16T03:14:00;22.37;;;16.97;;
9276;SDS011;4676;42.678;23.244;2023-05-16T03:16:27;24.47;;;17.70;;
9276;SDS011;4676;42.678;23.244;2023-05-16T03:18:54;25.10;;;18.10;;
9276;SDS011;4676;42.678;23.244;2023-05-16T03:21:21;26.73;;;17.73;;
9276;SDS011;4676;42.678;23.244;2023-05-16T03:23:49;23.00;;;17.40;;
9276;SDS011;4676;42.678;23.244;2023-05-16T03:26:16;22.97;;;18.20;;
9276;SDS011;4676;42.678;23.244;2023-05-16T03:28:42;36.63;;;19.17;;
9276;SDS011;4676;42.678;23.244;2023-05-16T03:31:09;25.17;;;18.50;;
9276;SDS011;4676;42.678;23.244;2023-05-16T03:33:36;22.70;;;18.07;;
9276;SDS011;4676;42.678;23.244;2023-05-16T03:36:03;20.70;;;17.77;;
9276;SDS011;4676;42.678;23.244;2023-05-16T03:38:30;24.80;;;18.40;;
9276;SDS011;4676;42.678;23.244;2023-05-16T03:40:58;23.27;;;18.00;;
9276;SDS011;4676;42.678;23.244;2023-05-16T03:43:25;23.77;;;17.17;;
9276;SDS011;4676;42.678;23.244;2023-05-16T03:45:52;27.43;;;17.37;;
9276;SDS011;4676;42.678;23.244;2023-05-16T03:48:19;25.40;;;18.40;;
9276;SDS011;4676;42.678;23.244;2023-05-16T03:50:46;24.70;;;17.27;;
9276;SDS011;4676;42.678;23.244;2023-05-16T03:53:13;23.80;;;18.70;;
9276;SDS011;4676;42.678;23.244;2023-05-16T03:55:40;23.00;;;17.10;;
9276;SDS011;4676;42.678;23.244;2023-05-16T03:58:08;23.60;;;17.83;;
9276;SDS011;4676;42.678;23.244;2023-05-16T04:00:34;26.77;;;18.67;;
9276;SDS011;4676;42.678;23.244;2023-05-16T04:03:01;27.93;;;17.80;;
9276;SDS011;4676;42.678;23.244;2023-05-16T04:05:29;19.20;;;16.60;;
9276;SDS011;4676;42.678;23.244;2023-05-16T04:07:55;33.63;;;17.20;;
9276;SDS011;4676;42.678;23.244;2023-05-16T04:10:23;21.30;;;17.20;;
9276;SDS011;4676;42.678;23.244;2023-05-16T04:12:50;24.53;;;19.77;;
9276;SDS011;4676;42.678;23.244;2023-05-16T04:15:18;50.47;;;32.20;;
9276;SDS011;4676;42.678;23.244;2023-05-16T04:17:44;62.53;;;36.63;;
9276;SDS011;4676;42.678;23.244;2023-05-16T04:20:11;45.60;;;30.80;;
9276;SDS011;4676;42.678;23.244;2023-05-16T04:22:38;51.43;;;32.93;;
9276;SDS011;4676;42.678;23.244;2023-05-16T04:25:05;38.27;;;26.30;;
9276;SDS011;4676;42.678;23.244;2023-05-16T04:27:33;36.13;;;26.70;;
9276;SDS011;4676;42.678;23.244;2023-05-16T04:30:00;40.67;;;26.73;;
9276;SDS011;4676;42.678;23.244;2023-05-16T04:32:28;38.50;;;27.30;;
9276;SDS011;4676;42.678;23.244;2023-05-16T04:34:55;37.10;;;24.93;;
9276;SDS011;4676;42.678;23.244;2023-05-16T04:37:22;33.53;;;22.70;;
9276;SDS011;4676;42.678;23.244;2023-05-16T04:39:48;28.53;;;20.13;;
9276;SDS011;4676;42.678;23.244;2023-05-16T04:42:15;32.53;;;20.57;;
9276;SDS011;4676;42.678;23.244;2023-05-16T04:44:42;27.93;;;20.07;;
9276;SDS011;4676;42.678;23.244;2023-05-16T04:47:08;29.77;;;18.13;;
9276;SDS011;4676;42.678;23.244;2023-05-16T04:49:37;27.00;;;19.00;;
9276;SDS011;4676;42.678;23.244;2023-05-16T04:52:04;27.20;;;18.60;;
9276;SDS011;4676;42.678;23.244;2023-05-16T04:54:32;24.70;;;16.87;;
9276;SDS011;4676;42.678;23.244;2023-05-16T04:56:59;24.50;;;17.87;;
9276;SDS011;4676;42.678;23.244;2023-05-16T04:59:25;28.97;;;17.93;;
9276;SDS011;4676;42.678;23.244;2023-05-16T05:01:52;28.40;;;16.57;;
9276;SDS011;4676;42.678;23.244;2023-05-16T05:04:19;33.03;;;21.60;;
9276;SDS011;4676;42.678;23.244;2023-05-16T05:06:48;33.33;;;21.77;;
9276;SDS011;4676;42.678;23.244;2023-05-16T05:09:14;31.33;;;21.23;;
9276;SDS011;4676;42.678;23.244;2023-05-16T05:11:41;29.43;;;19.13;;
9276;SDS011;4676;42.678;23.244;2023-05-16T05:14:08;27.63;;;17.43;;
9276;SDS011;4676;42.678;23.244;2023-05-16T05:16:35;25.07;;;18.47;;
9276;SDS011;4676;42.678;23.244;2023-05-16T05:19:01;25.33;;;18.00;;
9276;SDS011;4676;42.678;23.244;2023-05-16T05:21:28;28.53;;;18.67;;
9276;SDS011;4676;42.678;23.244;2023-05-16T05:23:56;35.37;;;19.57;;
9276;SDS011;4676;42.678;23.244;2023-05-16T05:26:23;32.20;;;19.57;;
9276;SDS011;4676;42.678;23.244;2023-05-16T05:28:50;27.90;;;18.40;;
9276;SDS011;4676;42.678;23.244;2023-05-16T05:31:17;26.13;;;17.47;;
9276;SDS011;4676;42.678;23.244;2023-05-16T05:33:44;30.80;;;17.70;;
9276;SDS011;4676;42.678;23.244;2023-05-16T05:36:10;22.67;;;17.77;;
9276;SDS011;4676;42.678;23.244;2023-05-16T05:38:37;21.50;;;16.93;;
9276;SDS011;4676;42.678;23.244;2023-05-16T05:41:05;27.50;;;17.90;;
9276;SDS011;4676;42.678;23.244;2023-05-16T05:43:32;30.17;;;19.37;;
9276;SDS011;4676;42.678;23.244;2023-05-16T05:45:59;28.63;;;18.13;;
9276;SDS011;4676;42.678;23.244;2023-05-16T05:48:26;27.13;;;18.20;;
9276;SDS011;4676;42.678;23.244;2023-05-16T05:50:54;25.27;;;16.10;;
9276;SDS011;4676;42.678;23.244;2023-05-16T05:53:20;24.13;;;16.10;;
9276;SDS011;4676;42.678;23.244;2023-05-16T05:55:47;27.00;;;16.70;;
9276;SDS011;4676;42.678;23.244;2023-05-16T05:58:15;23.37;;;15.43;;
9276;SDS011;4676;42.678;23.244;2023-05-16T06:00:44;19.90;;;16.27;;
9276;SDS011;4676;42.678;23.244;2023-05-16T06:03:11;20.27;;;15.17;;
9276;SDS011;4676;42.678;23.244;2023-05-16T06:05:38;20.27;;;16.10;;
9276;SDS011;4676;42.678;23.244;2023-05-16T06:08:05;23.27;;;15.07;;
9276;SDS011;4676;42.678;23.244;2023-05-16T06:10:32;19.17;;;13.70;;
9276;SDS011;4676;42.678;23.244;2023-05-16T06:12:58;17.60;;;13.87;;
9276;SDS011;4676;42.678;23.244;2023-05-16T06:15:26;19.63;;;13.67;;
9276;SDS011;4676;42.678;23.244;2023-05-16T06:17:53;20.03;;;13.50;;
9276;SDS011;4676;42.678;23.244;2023-05-16T06:20:20;17.80;;;13.23;;
9276;SDS011;4676;42.678;23.244;2023-05-16T06:22:47;34.47;;;14.23;;
9276;SDS011;4676;42.678;23.244;2023-05-16T06:25:13;26.10;;;14.23;;
9276;SDS011;4676;42.678;23.244;2023-05-16T06:27:40;23.10;;;15.17;;
9276;SDS011;4676;42.678;23.244;2023-05-16T06:30:07;17.37;;;12.40;;
9276;SDS011;4676;42.678;23.244;2023-05-16T06:32:36;18.90;;;12.83;;
9276;SDS011;4676;42.678;23.244;2023-05-16T06:35:04;15.93;;;12.53;;
9276;SDS011;4676;42.678;23.244;2023-05-16T06:37:32;14.60;;;11.83;;
9276;SDS011;4676;42.678;23.244;2023-05-16T06:39:59;16.27;;;12.13;;
9276;SDS011;4676;42.678;23.244;2023-05-16T06:42:25;16.70;;;13.00;;
9276;SDS011;4676;42.678;23.244;2023-05-16T06:44:52;15.83;;;12.23;;
9276;SDS011;4676;42.678;23.244;2023-05-16T06:47:19;14.70;;;11.53;;
9276;SDS011;4676;42.678;23.244;2023-05-16T06:49:50;12.53;;;10.77;;
9276;SDS011;4676;42.678;23.244;2023-05-16T06:52:17;12.63;;;10.63;;
9276;SDS011;4676;42.678;23.244;2023-05-16T06:54:43;15.97;;;10.10;;
9276;SDS011;4676;42.678;23.244;2023-05-16T06:57:10;12.77;;;10.50;;
9276;SDS011;4676;42.678;23.244;2023-05-16T06:59:37;14.67;;;8.90;;
9276;SDS011;4676;42.678;23.244;2023-05-16T07:02:04;16.63;;;9.20;;
9276;SDS011;4676;42.678;23.244;2023-05-16T07:04:31;9.70;;;8.87;;
9276;SDS011;4676;42.678;23.244;2023-05-16T07:06:59;14.00;;;9.70;;
9276;SDS011;4676;42.678;23.244;2023-05-16T07:09:26;14.20;;;8.87;;
9276;SDS011;4676;42.678;23.244;2023-05-16T07:11:53;10.07;;;9.17;;
9276;SDS011;4676;42.678;23.244;2023-05-16T07:14:20;11.53;;;9.23;;
9276;SDS011;4676;42.678;23.244;2023-05-16T07:16:46;17.83;;;8.97;;
9276;SDS011;4676;42.678;23.244;2023-05-16T07:19:13;11.53;;;8.83;;
9276;SDS011;4676;42.678;23.244;2023-05-16T07:21:40;11.87;;;9.10;;
9276;SDS011;4676;42.678;23.244;2023-05-16T07:24:08;15.87;;;9.23;;
9276;SDS011;4676;42.678;23.244;2023-05-16T07:26:35;18.83;;;9.20;;
9276;SDS011;4676;42.678;23.244;2023-05-16T07:29:01;10.37;;;8.87;;
9276;SDS011;4676;42.678;23.244;2023-05-16T07:31:28;14.23;;;8.60;;
9276;SDS011;4676;42.678;23.244;2023-05-16T07:33:55;10.70;;;8.17;;
9276;SDS011;4676;42.678;23.244;2023-05-16T07:36:22;18.57;;;9.63;;
9276;SDS011;4676;42.678;23.244;2023-05-16T07:38:49;20.17;;;9.17;;
9276;SDS011;4676;42.678;23.244;2023-05-16T07:41:17;8.83;;;8.00;;
9276;SDS011;4676;42.678;23.244;2023-05-16T07:43:43;8.43;;;7.77;;
9276;SDS011;4676;42.678;23.244;2023-05-16T07:46:10;10.57;;;8.17;;
9276;SDS011;4676;42.678;23.244;2023-05-16T07:48:38;8.47;;;7.37;;
9276;SDS011;4676;42.678;23.244;2023-05-16T07:51:05;13.63;;;8.20;;
9276;SDS011;4676;42.678;23.244;2023-05-16T07:53:31;14.60;;;9.13;;
9276;SDS011;4676;42.678;23.244;2023-05-16T07:55:58;10.80;;;7.80;;
9276;SDS011;4676;42.678;23.244;2023-05-16T07:58:26;7.73;;;6.93;;
9276;SDS011;4676;42.678;23.244;2023-05-16T08:00:53;14.37;;;7.63;;
9276;SDS011;4676;42.678;23.244;2023-05-16T08:03:20;8.67;;;7.57;;
9276;SDS011;4676;42.678;23.244;2023-05-16T08:05:47;11.73;;;7.87;;
9276;SDS011;4676;42.678;23.244;2023-05-16T08:08:14;12.47;;;7.77;;
9276;SDS011;4676;42.678;23.244;2023-05-16T08:10:40;12.63;;;8.13;;
9276;SDS011;4676;42.678;23.244;2023-05-16T08:13:07;10.50;;;8.37;;
9276;SDS011;4676;42.678;23.244;2023-05-16T08:15:36;14.73;;;8.07;;
9276;SDS011;4676;42.678;23.244;2023-05-16T08:18:02;13.90;;;7.90;;
9276;SDS011;4676;42.678;23.244;2023-05-16T08:20:31;10.63;;;8.47;;
9276;SDS011;4676;42.678;23.244;2023-05-16T08:22:57;13.80;;;8.20;;
9276;SDS011;4676;42.678;23.244;2023-05-16T08:25:24;10.97;;;8.40;;
9276;SDS011;4676;42.678;23.244;2023-05-16T08:27:51;11.00;;;7.13;;
9276;SDS011;4676;42.678;23.244;2023-05-16T08:30:17;8.93;;;8.00;;
9276;SDS011;4676;42.678;23.244;2023-05-16T08:32:46;8.20;;;7.27;;
9276;SDS011;4676;42.678;23.244;2023-05-16T08:35:12;13.33;;;7.80;;
9276;SDS011;4676;42.678;23.244;2023-05-16T08:37:39;8.17;;;7.47;;
9276;SDS011;4676;42.678;23.244;2023-05-16T08:40:07;11.30;;;7.37;;
9276;SDS011;4676;42.678;23.244;2023-05-16T08:42:35;9.53;;;7.90;;
9276;SDS011;4676;42.678;23.244;2023-05-16T08:45:03;7.27;;;6.73;;
9276;SDS011;4676;42.678;23.244;2023-05-16T08:47:30;12.33;;;6.47;;
9276;SDS011;4676;42.678;23.244;2023-05-16T08:49:59;6.87;;;6.27;;
9276;SDS011;4676;42.678;23.244;2023-05-16T08:52:29;8.47;;;6.57;;
9276;SDS011;4676;42.678;23.244;2023-05-16T08:54:58;12.87;;;6.77;;
9276;SDS011;4676;42.678;23.244;2023-05-16T08:57:29;7.20;;;6.53;;
9276;SDS011;4676;42.678;23.244;2023-05-16T09:02:27;7.33;;;6.73;;
9276;SDS011;4676;42.678;23.244;2023-05-16T09:04:54;6.67;;;6.17;;
9276;SDS011;4676;42.678;23.244;2023-05-16T09:07:23;11.93;;;6.50;;
9276;SDS011;4676;42.678;23.244;2023-05-16T09:09:50;8.93;;;5.97;;
9276;SDS011;4676;42.678;23.244;2023-05-16T09:12:18;10.43;;;6.33;;
9276;SDS011;4676;42.678;23.244;2023-05-16T09:14:46;6.97;;;6.03;;
9276;SDS011;4676;42.678;23.244;2023-05-16T09:17:13;10.10;;;8.63;;
9276;SDS011;4676;42.678;23.244;2023-05-16T09:19:40;7.97;;;7.20;;
9276;SDS011;4676;42.678;23.244;2023-05-16T09:22:08;10.53;;;6.50;;
9276;SDS011;4676;42.678;23.244;2023-05-16T09:24:38;7.60;;;6.37;;
9276;SDS011;4676;42.678;23.244;2023-05-16T09:27:08;8.00;;;6.10;;
9276;SDS011;4676;42.678;23.244;2023-05-16T09:29:35;7.33;;;6.80;;
9276;SDS011;4676;42.678;23.244;2023-05-16T09:32:09;7.27;;;6.33;;
9276;SDS011;4676;42.678;23.244;2023-05-16T09:37:13;7.30;;;6.70;;
9276;SDS011;4676;42.678;23.244;2023-05-16T09:39:45;7.20;;;6.80;;
9276;SDS011;4676;42.678;23.244;2023-05-16T09:42:13;11.37;;;6.17;;
9276;SDS011;4676;42.678;23.244;2023-05-16T09:44:40;9.27;;;7.17;;
9276;SDS011;4676;42.678;23.244;2023-05-16T09:47:12;7.63;;;5.73;;
9276;SDS011;4676;42.678;23.244;2023-05-16T09:49:40;9.03;;;6.90;;
9276;SDS011;4676;42.678;23.244;2023-05-16T09:52:06;7.27;;;6.27;;
9276;SDS011;4676;42.678;23.244;2023-05-16T09:54:33;6.87;;;6.37;;
9276;SDS011;4676;42.678;23.244;2023-05-16T09:57:02;7.07;;;6.37;;
9276;SDS011;4676;42.678;23.244;2023-05-16T09:59:29;9.53;;;7.00;;
9276;SDS011;4676;42.678;23.244;2023-05-16T10:01:56;15.67;;;7.47;;
9276;SDS011;4676;42.678;23.244;2023-05-16T10:04:24;8.80;;;7.10;;
9276;SDS011;4676;42.678;23.244;2023-05-16T10:06:51;7.60;;;6.80;;
9276;SDS011;4676;42.678;23.244;2023-05-16T10:09:21;10.13;;;6.80;;
9276;SDS011;4676;42.678;23.244;2023-05-16T10:11:59;11.23;;;6.50;;
9276;SDS011;4676;42.678;23.244;2023-05-16T10:14:30;8.50;;;6.77;;
9276;SDS011;4676;42.678;23.244;2023-05-16T10:17:00;7.23;;;6.47;;
9276;SDS011;4676;42.678;23.244;2023-05-16T10:19:29;8.97;;;7.20;;
9276;SDS011;4676;42.678;23.244;2023-05-16T10:21:59;8.63;;;7.77;;
9276;SDS011;4676;42.678;23.244;2023-05-16T10:24:30;7.30;;;6.70;;
9276;SDS011;4676;42.678;23.244;2023-05-16T10:27:02;7.60;;;6.73;;
9276;SDS011;4676;42.678;23.244;2023-05-16T10:29:31;12.60;;;7.57;;
9276;SDS011;4676;42.678;23.244;2023-05-16T10:31:58;8.73;;;7.97;;
9276;SDS011;4676;42.678;23.244;2023-05-16T10:34:25;15.00;;;7.20;;
9276;SDS011;4676;42.678;23.244;2023-05-16T10:36:52;10.97;;;7.07;;
9276;SDS011;4676;42.678;23.244;2023-05-16T10:39:19;12.30;;;7.70;;
9276;SDS011;4676;42.678;23.244;2023-05-16T10:41:47;13.07;;;7.70;;
9276;SDS011;4676;42.678;23.244;2023-05-16T10:44:14;12.50;;;7.83;;
9276;SDS011;4676;42.678;23.244;2023-05-16T10:46:43;10.87;;;7.40;;
9276;SDS011;4676;42.678;23.244;2023-05-16T10:49:18;9.27;;;8.27;;
9276;SDS011;4676;42.678;23.244;2023-05-16T10:51:48;8.63;;;7.97;;
9276;SDS011;4676;42.678;23.244;2023-05-16T10:54:32;9.10;;;8.20;;
9276;SDS011;4676;42.678;23.244;2023-05-16T10:57:03;8.10;;;7.50;;
9276;SDS011;4676;42.678;23.244;2023-05-16T11:02:22;8.13;;;7.43;;
9276;SDS011;4676;42.678;23.244;2023-05-16T11:04:50;8.33;;;7.60;;
9276;SDS011;4676;42.678;23.244;2023-05-16T11:07:18;10.50;;;7.57;;
9276;SDS011;4676;42.678;23.244;2023-05-16T11:09:52;11.77;;;7.50;;
9276;SDS011;4676;42.678;23.244;2023-05-16T11:12:35;9.90;;;8.20;;
9276;SDS011;4676;42.678;23.244;2023-05-16T11:15:16;13.50;;;8.43;;
9276;SDS011;4676;42.678;23.244;2023-05-16T11:17:48;12.10;;;8.07;;
9276;SDS011;4676;42.678;23.244;2023-05-16T11:20:25;9.90;;;7.97;;
9276;SDS011;4676;42.678;23.244;2023-05-16T11:25:45;11.57;;;9.37;;
9276;SDS011;4676;42.678;23.244;2023-05-16T11:28:14;11.07;;;9.13;;
9276;SDS011;4676;42.678;23.244;2023-05-16T11:30:43;14.27;;;8.53;;
9276;SDS011;4676;42.678;23.244;2023-05-16T11:33:13;14.13;;;8.07;;
9276;SDS011;4676;42.678;23.244;2023-05-16T11:35:40;16.70;;;8.10;;
9276;SDS011;4676;42.678;23.244;2023-05-16T11:38:11;12.33;;;8.90;;
9276;SDS011;4676;42.678;23.244;2023-05-16T11:40:43;15.07;;;9.37;;
9276;SDS011;4676;42.678;23.244;2023-05-16T11:43:10;10.13;;;8.60;;
9276;SDS011;4676;42.678;23.244;2023-05-16T11:45:44;18.10;;;8.40;;
9276;SDS011;4676;42.678;23.244;2023-05-16T11:48:10;13.87;;;7.80;;
9276;SDS011;4676;42.678;23.244;2023-05-16T11:50:40;13.80;;;8.60;;
9276;SDS011;4676;42.678;23.244;2023-05-16T11:53:06;17.50;;;9.57;;
9276;SDS011;4676;42.678;23.244;2023-05-16T11:55:33;9.83;;;8.43;;
9276;SDS011;4676;42.678;23.244;2023-05-16T11:58:01;14.33;;;8.53;;
9276;SDS011;4676;42.678;23.244;2023-05-16T12:00:28;13.63;;;9.37;;
9276;SDS011;4676;42.678;23.244;2023-05-16T12:02:59;12.50;;;8.93;;
9276;SDS011;4676;42.678;23.244;2023-05-16T12:05:28;11.37;;;8.17;;
9276;SDS011;4676;42.678;23.244;2023-05-16T12:07:56;8.70;;;7.73;;
9276;SDS011;4676;42.678;23.244;2023-05-16T12:10:23;10.55;;;9.52;;
9276;SDS011;4676;42.678;23.244;2023-05-16T12:12:50;12.43;;;9.70;;
9276;SDS011;4676;42.678;23.244;2023-05-16T12:15:18;14.37;;;9.40;;
9276;SDS011;4676;42.678;23.244;2023-05-16T12:17:45;18.37;;;8.57;;
9276;SDS011;4676;42.678;23.244;2023-05-16T12:20:12;10.53;;;9.50;;
9276;SDS011;4676;42.678;23.244;2023-05-16T12:22:43;9.73;;;8.83;;
9276;SDS011;4676;42.678;23.244;2023-05-16T12:25:20;10.67;;;9.00;;
9276;SDS011;4676;42.678;23.244;2023-05-16T12:27:47;10.33;;;8.33;;
9276;SDS011;4676;42.678;23.244;2023-05-16T12:30:15;16.70;;;9.60;;
9276;SDS011;4676;42.678;23.244;2023-05-16T12:32:42;19.57;;;8.87;;
9276;SDS011;4676;42.678;23.244;2023-05-16T12:35:09;15.07;;;9.20;;
9276;SDS011;4676;42.678;23.244;2023-05-16T12:37:37;10.13;;;8.37;;
9276;SDS011;4676;42.678;23.244;2023-05-16T12:40:06;12.53;;;9.47;;
9276;SDS011;4676;42.678;23.244;2023-05-16T12:42:36;10.60;;;9.47;;
9276;SDS011;4676;42.678;23.244;2023-05-16T12:45:03;12.83;;;8.93;;
9276;SDS011;4676;42.678;23.244;2023-05-16T12:47:34;12.83;;;9.57;;
9276;SDS011;4676;42.678;23.244;2023-05-16T12:50:02;12.13;;;8.87;;
9276;SDS011;4676;42.678;23.244;2023-05-16T12:52:34;16.07;;;9.63;;
9276;SDS011;4676;42.678;23.244;2023-05-16T12:55:00;12.47;;;9.17;;
9276;SDS011;4676;42.678;23.244;2023-05-16T12:57:29;10.47;;;9.17;;
9276;SDS011;4676;42.678;23.244;2023-05-16T12:59:55;14.57;;;9.37;;
9276;SDS011;4676;42.678;23.244;2023-05-16T13:02:22;11.27;;;9.57;;
9276;SDS011;4676;42.678;23.244;2023-05-16T13:04:49;21.53;;;10.30;;
9276;SDS011;4676;42.678;23.244;2023-05-16T13:07:16;14.00;;;10.07;;
9276;SDS011;4676;42.678;23.244;2023-05-16T13:09:43;15.20;;;10.53;;
9276;SDS011;4676;42.678;23.244;2023-05-16T13:12:09;10.83;;;9.83;;
9276;SDS011;4676;42.678;23.244;2023-05-16T13:14:39;16.10;;;9.63;;
9276;SDS011;4676;42.678;23.244;2023-05-16T13:17:06;11.97;;;9.70;;
9276;SDS011;4676;42.678;23.244;2023-05-16T13:19:33;11.40;;;9.73;;
9276;SDS011;4676;42.678;23.244;2023-05-16T13:22:00;18.67;;;10.23;;
9276;SDS011;4676;42.678;23.244;2023-05-16T13:24:28;18.90;;;9.53;;
9276;SDS011;4676;42.678;23.244;2023-05-16T13:26:54;22.80;;;10.40;;
9276;SDS011;4676;42.678;23.244;2023-05-16T13:29:23;12.63;;;10.37;;
9276;SDS011;4676;42.678;23.244;2023-05-16T13:31:51;17.27;;;10.53;;
9276;SDS011;4676;42.678;23.244;2023-05-16T13:34:18;21.70;;;11.17;;
9276;SDS011;4676;42.678;23.244;2023-05-16T13:36:45;13.97;;;9.70;;
9276;SDS011;4676;42.678;23.244;2023-05-16T13:39:13;14.83;;;9.90;;
9276;SDS011;4676;42.678;23.244;2023-05-16T13:41:40;21.43;;;11.10;;
9276;SDS011;4676;42.678;23.244;2023-05-16T13:44:07;42.03;;;24.13;;
9276;SDS011;4676;42.678;23.244;2023-05-16T13:46:34;29.87;;;17.93;;
9276;SDS011;4676;42.678;23.244;2023-05-16T13:49:02;29.90;;;15.90;;
9276;SDS011;4676;42.678;23.244;2023-05-16T13:51:28;22.57;;;16.07;;
9276;SDS011;4676;42.678;23.244;2023-05-16T13:53:55;19.80;;;14.00;;
9276;SDS011;4676;42.678;23.244;2023-05-16T13:56:22;25.33;;;13.00;;
9276;SDS011;4676;42.678;23.244;2023-05-16T13:58:49;13.27;;;11.87;;
9276;SDS011;4676;42.678;23.244;2023-05-16T14:01:16;16.60;;;10.67;;
9276;SDS011;4676;42.678;23.244;2023-05-16T14:03:43;21.37;;;12.37;;
9276;SDS011;4676;42.678;23.244;2023-05-16T14:06:11;19.70;;;12.00;;
9276;SDS011;4676;42.678;23.244;2023-05-16T14:08:38;18.40;;;11.23;;
9276;SDS011;4676;42.678;23.244;2023-05-16T14:11:05;14.03;;;11.73;;
9276;SDS011;4676;42.678;23.244;2023-05-16T14:13:31;69.73;;;42.17;;
9276;SDS011;4676;42.678;23.244;2023-05-16T14:15:58;61.37;;;34.27;;
9276;SDS011;4676;42.678;23.244;2023-05-16T14:18:26;21.33;;;13.77;;
9276;SDS011;4676;42.678;23.244;2023-05-16T14:20:53;24.20;;;18.47;;
9276;SDS011;4676;42.678;23.244;2023-05-16T14:23:21;14.10;;;12.83;;
9276;SDS011;4676;42.678;23.244;2023-05-16T14:25:48;14.80;;;11.43;;
9276;SDS011;4676;42.678;23.244;2023-05-16T14:28:15;23.17;;;14.47;;
9276;SDS011;4676;42.678;23.244;2023-05-16T14:30:42;78.73;;;53.57;;
9276;SDS011;4676;42.678;23.244;2023-05-16T14:33:08;15.27;;;13.77;;
9276;SDS011;4676;42.678;23.244;2023-05-16T14:35:35;16.70;;;11.93;;
9276;SDS011;4676;42.678;23.244;2023-05-16T14:38:03;39.77;;;24.87;;
9276;SDS011;4676;42.678;23.244;2023-05-16T14:40:32;21.97;;;15.67;;
9276;SDS011;4676;42.678;23.244;2023-05-16T14:42:59;21.00;;;13.27;;
9276;SDS011;4676;42.678;23.244;2023-05-16T14:45:28;10.13;;;7.83;;
9276;SDS011;4676;42.678;23.244;2023-05-16T14:47:54;8.40;;;7.60;;
9276;SDS011;4676;42.678;23.244;2023-05-16T14:50:21;8.63;;;6.73;;
9276;SDS011;4676;42.678;23.244;2023-05-16T14:52:48;12.30;;;7.60;;
9276;SDS011;4676;42.678;23.244;2023-05-16T14:55:15;14.07;;;7.63;;
9276;SDS011;4676;42.678;23.244;2023-05-16T14:57:43;14.03;;;8.57;;